createdAt,value
2019-03-04T00:00:45.545Z,97642.45
2019-03-04T00:03:13.514Z,97633.88
2019-03-04T00:05:40.214Z,97634.19
2019-03-04T00:08:06.968Z,97624.00
2019-03-04T00:10:33.820Z,97616.21
2019-03-04T00:13:00.530Z,97605.39
2019-03-04T00:15:27.240Z,97606.02
2019-03-04T00:17:53.948Z,97597.53
2019-03-04T00:20:21.028Z,97586.69
2019-03-04T00:22:47.765Z,97585.61
2019-03-04T00:25:14.451Z,97584.37
2019-03-04T00:27:41.518Z,97584.54
2019-03-04T00:30:08.230Z,97580.65
2019-03-04T00:32:37.310Z,97581.05
2019-03-04T00:35:06.787Z,97581.27
2019-03-04T00:37:33.450Z,97588.62
2019-03-04T00:40:00.312Z,97590.02
2019-03-04T00:42:27.041Z,97614.80
2019-03-04T00:44:53.802Z,97610.76
2019-03-04T00:47:20.553Z,97628.05
2019-03-04T00:49:47.463Z,97616.44
2019-03-04T00:52:16.167Z,97623.22
2019-03-04T00:54:42.863Z,97624.30
2019-03-04T00:57:09.583Z,97637.77
2019-03-04T00:59:36.266Z,97638.02
2019-03-04T01:02:02.967Z,97629.89
2019-03-04T01:04:29.656Z,97625.45
2019-03-04T01:06:56.358Z,97629.48
2019-03-04T01:09:23.061Z,97638.69
2019-03-04T01:11:50.141Z,97631.22
2019-03-04T01:14:19.589Z,97640.24
2019-03-04T01:16:46.835Z,97640.24
2019-03-04T01:19:16.435Z,97649.92
2019-03-04T01:21:43.134Z,97649.58
2019-03-04T01:24:09.939Z,97644.12
2019-03-04T01:26:36.664Z,97645.26
2019-03-04T01:29:04.783Z,97638.48
2019-03-04T01:31:31.508Z,97623.31
2019-03-04T01:33:59.056Z,97639.64
2019-03-04T01:36:25.788Z,97630.78
2019-03-04T01:38:52.489Z,97624.25
2019-03-04T01:41:19.634Z,97645.31
2019-03-04T01:43:46.365Z,97626.23
2019-03-04T01:46:13.075Z,97616.84
2019-03-04T01:48:39.745Z,97618.59
2019-03-04T01:51:06.478Z,97623.00
2019-03-04T01:53:33.183Z,97623.25
2019-03-04T01:56:00.432Z,97634.75
2019-03-04T01:58:27.133Z,97628.67
2019-03-04T02:00:54.155Z,97619.00
2019-03-04T02:03:22.561Z,97600.53
2019-03-04T02:05:49.260Z,97599.70
2019-03-04T02:08:15.987Z,97598.20
2019-03-04T02:10:42.704Z,97603.61
2019-03-04T02:13:09.413Z,97576.99
2019-03-04T02:15:36.131Z,97550.06
2019-03-04T02:18:02.857Z,97553.19
2019-03-04T02:20:29.583Z,97547.79
2019-03-04T02:22:56.315Z,97546.84
2019-03-04T02:25:55.830Z,97525.74
2019-03-04T02:28:22.575Z,97523.04
2019-03-04T02:30:49.679Z,97503.53
2019-03-04T02:33:18.824Z,97489.84
2019-03-04T02:35:45.525Z,97426.63
2019-03-04T02:38:15.048Z,97389.92
2019-03-04T02:40:41.765Z,97386.42
2019-03-04T02:43:08.447Z,97387.77
2019-03-04T02:45:35.142Z,97367.50
2019-03-04T02:48:01.908Z,97360.61
2019-03-04T02:50:28.623Z,97362.56
2019-03-04T02:52:55.331Z,97356.95
2019-03-04T02:55:22.007Z,97324.73
2019-03-04T02:57:49.284Z,97323.23
2019-03-04T03:00:15.996Z,97355.73
2019-03-04T03:02:42.720Z,97354.31
2019-03-04T03:05:09.437Z,97345.00
2019-03-04T03:07:36.154Z,97355.23
2019-03-04T03:10:03.754Z,97350.95
2019-03-04T03:12:33.733Z,97310.04
2019-03-04T03:15:00.582Z,97346.45
2019-03-04T03:17:27.263Z,97367.97
2019-03-04T03:19:53.961Z,97357.02
2019-03-04T03:22:20.695Z,97366.00
2019-03-04T03:24:47.356Z,97328.44
2019-03-04T03:27:14.089Z,97317.87
2019-03-04T03:29:43.366Z,97340.39
2019-03-04T03:32:11.993Z,97349.42
2019-03-04T03:34:38.679Z,97363.78
2019-03-04T03:37:05.375Z,97351.85
2019-03-04T03:39:32.078Z,97346.76
2019-03-04T03:41:58.870Z,97321.17
2019-03-04T03:44:25.595Z,97313.53
2019-03-04T03:46:52.337Z,97322.75
2019-03-04T03:49:19.026Z,97316.71
2019-03-04T03:51:45.747Z,97313.38
2019-03-04T03:54:12.460Z,97327.84
2019-03-04T03:56:39.174Z,97331.81
2019-03-04T03:59:05.881Z,97329.58
2019-03-04T04:01:32.915Z,97332.45
2019-03-04T04:04:00.008Z,97316.36
2019-03-04T04:06:26.715Z,97305.63
2019-03-04T04:08:53.428Z,97295.81
2019-03-04T04:11:20.141Z,97287.48
2019-03-04T04:13:47.101Z,97273.73
2019-03-04T04:16:13.786Z,97266.05
2019-03-04T04:18:40.524Z,97268.91
2019-03-04T04:21:07.325Z,97253.84
2019-03-04T04:23:37.093Z,97246.31
2019-03-04T04:26:19.739Z,97244.13
2019-03-04T04:28:47.187Z,97218.38
2019-03-04T04:31:13.881Z,97235.89
2019-03-04T04:33:42.111Z,97218.39
2019-03-04T04:36:08.794Z,97193.20
2019-03-04T04:38:35.505Z,97192.33
2019-03-04T04:41:02.525Z,97201.13
2019-03-04T04:43:29.343Z,97204.63
2019-03-04T04:45:56.357Z,97202.92
2019-03-04T04:48:23.058Z,97208.46
2019-03-04T04:50:50.363Z,97207.36
2019-03-04T04:53:17.071Z,97206.89
2019-03-04T04:55:43.954Z,97206.75
2019-03-04T04:58:10.676Z,97205.57
2019-03-04T05:00:37.342Z,97188.02
2019-03-04T05:03:04.065Z,97179.69
2019-03-04T05:05:30.756Z,97183.59
2019-03-04T05:07:57.590Z,97167.80
2019-03-04T05:10:24.568Z,97137.20
2019-03-04T05:12:51.426Z,97113.88
2019-03-04T05:15:18.122Z,97132.31
2019-03-04T05:17:44.860Z,97114.31
2019-03-04T05:20:16.978Z,97131.52
2019-03-04T05:22:43.711Z,97119.93
2019-03-04T05:25:10.407Z,97123.58
2019-03-04T05:27:37.152Z,97074.03
2019-03-04T05:30:07.809Z,97090.69
2019-03-04T05:32:37.769Z,97104.51
2019-03-04T05:35:04.672Z,97109.89
2019-03-04T05:37:31.703Z,97110.64
2019-03-04T05:39:58.405Z,97106.53
2019-03-04T05:42:25.117Z,97106.53
2019-03-04T05:44:51.796Z,97107.45
2019-03-04T05:47:18.538Z,97114.53
2019-03-04T05:49:46.067Z,97123.81
2019-03-04T05:52:12.791Z,97114.63
2019-03-04T05:54:39.515Z,97132.84
2019-03-04T05:57:06.296Z,97136.22
2019-03-04T05:59:33.031Z,97161.22
2019-03-04T06:02:08.008Z,97173.13
2019-03-04T06:04:35.158Z,97148.23
2019-03-04T06:07:05.603Z,97156.19
2019-03-04T06:09:32.314Z,97160.06
2019-03-04T06:11:58.994Z,97166.53
2019-03-04T06:14:26.040Z,97145.38
2019-03-04T06:16:52.790Z,97151.74
2019-03-04T06:19:19.537Z,97180.16
2019-03-04T06:21:46.308Z,97151.14
2019-03-04T06:24:13.028Z,97154.25
2019-03-04T06:26:40.598Z,97156.50
2019-03-04T06:29:09.582Z,97122.20
2019-03-04T06:31:36.303Z,97111.95
2019-03-04T06:34:03.362Z,97082.81
2019-03-04T06:36:30.077Z,97064.14
2019-03-04T06:38:56.750Z,97116.59
2019-03-04T06:41:23.446Z,97068.49
2019-03-04T06:43:51.452Z,97007.34
2019-03-04T06:46:18.477Z,96996.23
2019-03-04T06:48:45.159Z,97030.43
2019-03-04T06:51:18.099Z,97010.05
2019-03-04T06:54:05.514Z,96974.95
2019-03-04T06:56:54.609Z,96973.67
2019-03-04T06:59:56.584Z,97008.89
2019-03-04T07:02:24.080Z,97027.67
2019-03-04T07:05:33.127Z,97037.70
2019-03-04T07:08:00.358Z,97020.22
2019-03-04T07:10:27.171Z,97091.48
2019-03-04T07:12:54.437Z,97101.59
2019-03-04T07:15:21.138Z,97038.47
2019-03-04T07:17:47.962Z,97026.34
2019-03-04T07:20:15.098Z,97045.93
2019-03-04T07:22:41.768Z,97032.69
2019-03-04T07:25:08.470Z,97046.85
2019-03-04T07:27:37.082Z,97001.29
2019-03-04T07:30:05.348Z,96972.96
2019-03-04T07:32:32.056Z,97015.75
2019-03-04T07:34:58.759Z,97022.86
2019-03-04T07:37:25.518Z,97025.96
2019-03-04T07:39:52.682Z,96984.18
2019-03-04T07:42:19.382Z,97001.38
2019-03-04T07:44:46.102Z,97037.30
2019-03-04T07:47:13.333Z,97019.64
2019-03-04T07:49:41.810Z,97018.32
2019-03-04T07:52:11.072Z,97010.06
2019-03-04T07:54:38.418Z,96996.21
2019-03-04T07:57:08.536Z,97040.61
2019-03-04T07:59:35.344Z,96989.77
2019-03-04T08:02:02.013Z,96986.87
2019-03-04T08:04:29.426Z,97013.33
2019-03-04T08:07:33.072Z,97002.91
2019-03-04T08:10:19.600Z,97003.95
2019-03-04T08:13:29.082Z,97015.41
2019-03-04T08:15:56.847Z,97012.78
2019-03-04T08:18:23.544Z,96999.23
2019-03-04T08:20:50.261Z,97033.38
2019-03-04T08:23:18.602Z,97029.03
2019-03-04T08:25:46.846Z,97021.06
2019-03-04T08:28:14.362Z,97013.99
2019-03-04T08:30:41.150Z,97021.81
2019-03-04T08:33:08.220Z,97039.39
2019-03-04T08:35:34.906Z,97023.64
2019-03-04T08:38:01.700Z,97048.03
2019-03-04T08:40:28.396Z,97095.96
2019-03-04T08:42:55.123Z,97072.34
2019-03-04T08:45:23.240Z,97116.38
2019-03-04T08:47:50.026Z,97091.58
2019-03-04T08:50:18.549Z,97108.98
2019-03-04T08:52:45.510Z,97108.98
2019-03-04T08:55:14.703Z,97125.31
2019-03-04T08:57:41.438Z,97101.77
2019-03-04T09:00:11.473Z,97104.61
2019-03-04T09:02:38.798Z,97085.97
2019-03-04T09:05:09.020Z,97155.43
2019-03-04T09:07:35.720Z,97086.50
2019-03-04T09:10:03.982Z,97089.14
2019-03-04T09:12:30.697Z,97096.67
2019-03-04T09:14:57.419Z,97102.36
2019-03-04T09:17:24.222Z,97116.81
2019-03-04T09:19:51.350Z,97119.73
2019-03-04T09:22:18.238Z,97098.63
2019-03-04T09:24:45.015Z,97131.77
2019-03-04T09:27:11.785Z,97108.91
2019-03-04T09:29:38.599Z,97135.28
2019-03-04T09:32:05.310Z,97126.63
2019-03-04T09:34:32.193Z,97109.92
2019-03-04T09:36:58.880Z,97126.87
2019-03-04T09:39:25.642Z,97155.97
2019-03-04T09:41:56.300Z,97097.14
2019-03-04T09:44:23.030Z,97127.85
2019-03-04T09:46:49.760Z,97120.77
2019-03-04T09:49:16.525Z,97125.04
2019-03-04T09:51:43.230Z,97086.52
2019-03-04T09:54:09.950Z,97086.94
2019-03-04T09:56:37.171Z,97113.70
2019-03-04T09:59:03.875Z,97136.41
2019-03-04T10:01:41.637Z,97104.22
2019-03-04T10:04:31.482Z,97083.75
2019-03-04T10:08:01.511Z,97102.36
2019-03-04T10:11:12.714Z,97073.09
2019-03-04T10:14:36.629Z,97137.16
2019-03-04T10:17:25.321Z,97109.36
2019-03-04T10:20:42.619Z,97059.25
2019-03-04T10:23:51.155Z,97089.19
2019-03-04T10:26:57.201Z,97073.92
2019-03-04T10:30:20.657Z,97095.27
2019-03-04T10:33:25.665Z,97055.75
2019-03-04T10:36:37.619Z,97113.81
2019-03-04T10:40:04.413Z,97117.12
2019-03-04T10:43:18.868Z,97115.56
2019-03-04T10:46:02.092Z,97116.27
2019-03-04T10:48:28.805Z,97101.55
2019-03-04T10:50:55.547Z,97117.42
2019-03-04T10:53:22.327Z,97112.65
2019-03-04T10:55:49.145Z,97119.77
2019-03-04T10:58:15.960Z,97104.79
2019-03-04T11:00:42.698Z,97099.00
2019-03-04T11:03:09.853Z,97106.63
2019-03-04T11:05:36.573Z,97110.84
2019-03-04T11:08:03.280Z,97122.27
2019-03-04T11:10:30.094Z,97118.55
2019-03-04T11:12:56.861Z,97129.06
2019-03-04T11:15:23.586Z,97138.07
2019-03-04T11:17:50.409Z,97130.74
2019-03-04T11:20:17.443Z,97108.66
2019-03-04T11:22:47.199Z,97113.27
2019-03-04T11:25:13.893Z,97138.31
2019-03-04T11:27:40.729Z,97132.39
2019-03-04T11:30:08.453Z,97121.73
2019-03-04T11:32:35.204Z,97130.84
2019-03-04T11:35:02.085Z,97117.51
2019-03-04T11:37:33.435Z,97119.93
2019-03-04T11:40:04.519Z,97123.21
2019-03-04T11:42:31.649Z,97121.58
2019-03-04T11:44:58.428Z,97128.28
2019-03-04T11:47:26.094Z,97165.20
2019-03-04T11:49:53.503Z,97148.55
2019-03-04T11:52:20.537Z,97122.39
2019-03-04T11:54:47.270Z,97115.55
2019-03-04T11:57:13.999Z,97103.08
2019-03-04T11:59:40.759Z,97072.38
2019-03-04T12:02:14.168Z,97066.58
2019-03-04T12:04:41.037Z,97064.00
2019-03-04T12:07:08.140Z,97067.69
2019-03-04T12:09:34.872Z,97064.39
2019-03-04T12:12:01.631Z,97058.35
2019-03-04T12:14:28.363Z,97085.80
2019-03-04T12:16:55.521Z,97094.41
2019-03-04T12:19:22.657Z,97120.47
2019-03-04T12:21:49.454Z,97113.22
2019-03-04T12:24:16.677Z,97108.31
2019-03-04T12:26:43.413Z,97095.45
2019-03-04T12:29:10.305Z,97071.75
2019-03-04T12:31:44.478Z,97099.03
2019-03-04T12:34:13.060Z,97082.88
2019-03-04T12:36:39.825Z,97093.44
2019-03-04T12:39:06.531Z,97092.34
2019-03-04T12:41:33.244Z,97077.00
2019-03-04T12:44:00.307Z,97079.75
2019-03-04T12:46:27.027Z,97086.27
2019-03-04T12:48:53.775Z,97083.89
2019-03-04T12:51:23.444Z,97075.09
2019-03-04T12:53:49.220Z,97086.10
2019-03-04T12:56:15.936Z,97072.17
2019-03-04T12:58:43.020Z,97075.25
2019-03-04T13:01:09.747Z,97071.67
2019-03-04T13:03:36.467Z,97057.88
2019-03-04T13:06:04.836Z,97067.05
2019-03-04T13:08:31.607Z,97093.01
2019-03-04T13:10:58.325Z,97075.41
2019-03-04T13:13:24.991Z,97068.42
2019-03-04T13:15:53.274Z,97073.58
2019-03-04T13:18:19.959Z,97087.65
2019-03-04T13:20:46.679Z,97128.23
2019-03-04T13:23:13.402Z,97125.87
2019-03-04T13:25:40.145Z,97146.96
2019-03-04T13:28:08.441Z,97112.38
2019-03-04T13:30:35.621Z,97082.84
2019-03-04T13:33:02.441Z,97093.12
2019-03-04T13:35:29.275Z,97092.66
2019-03-04T13:37:56.066Z,97081.17
2019-03-04T13:40:22.936Z,97099.52
2019-03-04T13:42:49.751Z,97106.16
2019-03-04T13:45:16.477Z,97096.34
2019-03-04T13:47:43.229Z,97114.77
2019-03-04T13:50:15.164Z,97114.42
2019-03-04T13:52:41.874Z,97118.53
2019-03-04T13:55:11.255Z,97135.22
2019-03-04T13:57:37.984Z,97134.63
2019-03-04T14:00:10.213Z,97160.05
2019-03-04T14:02:36.934Z,97155.02
2019-03-04T14:05:03.986Z,97163.17
2019-03-04T14:07:31.151Z,97134.95
2019-03-04T14:09:57.893Z,97155.34
2019-03-04T14:12:24.748Z,97163.50
2019-03-04T14:14:51.451Z,97182.52
2019-03-04T14:17:18.173Z,97188.67
2019-03-04T14:19:45.932Z,97186.63
2019-03-04T14:22:14.671Z,97218.91
2019-03-04T14:24:41.599Z,97190.66
2019-03-04T14:27:08.351Z,97224.20
2019-03-04T14:29:35.091Z,97211.38
2019-03-04T14:32:01.838Z,97207.58
2019-03-04T14:34:28.567Z,97212.91
2019-03-04T14:36:55.364Z,97217.55
2019-03-04T14:39:22.114Z,97232.76
2019-03-04T14:41:49.087Z,97223.48
2019-03-04T14:44:15.802Z,97250.99
2019-03-04T14:46:42.568Z,97233.21
2019-03-04T14:49:09.271Z,97232.84
2019-03-04T14:51:36.123Z,97246.10
2019-03-04T14:54:02.832Z,97258.23
2019-03-04T14:56:29.888Z,97281.84
2019-03-04T14:59:10.303Z,97277.67
2019-03-04T15:01:25.319Z,97297.55
2019-03-04T15:03:52.094Z,97312.50
2019-03-04T15:06:20.157Z,97310.11
2019-03-04T15:08:47.037Z,97306.84
2019-03-04T15:11:14.100Z,97339.49
2019-03-04T15:13:43.629Z,97341.86
2019-03-04T15:16:10.349Z,97345.49
2019-03-04T15:18:39.209Z,97353.39
2019-03-04T15:21:05.938Z,97371.30
2019-03-04T15:23:33.076Z,97376.45
2019-03-04T15:25:59.806Z,97380.13
2019-03-04T15:28:26.795Z,97385.84
2019-03-04T15:30:55.294Z,97405.49
2019-03-04T15:33:22.081Z,97414.14
2019-03-04T15:35:48.826Z,97420.73
2019-03-04T15:38:15.661Z,97432.58
2019-03-04T15:40:43.054Z,97436.45
2019-03-04T15:43:10.062Z,97436.58
2019-03-04T15:45:36.957Z,97445.84
2019-03-04T15:48:03.791Z,97444.33
2019-03-04T15:50:30.780Z,97462.39
2019-03-04T15:52:57.816Z,97478.39
2019-03-04T15:55:24.731Z,97486.72
2019-03-04T15:57:51.441Z,97480.37
2019-03-04T16:00:18.200Z,97495.45
2019-03-04T16:02:45.001Z,97506.58
2019-03-04T16:05:11.861Z,97509.23
2019-03-04T16:07:38.584Z,97520.56
2019-03-04T16:10:08.016Z,97525.28
2019-03-04T16:12:37.189Z,97533.38
2019-03-04T16:15:06.213Z,97536.32
2019-03-04T16:17:32.922Z,97537.60
2019-03-04T16:19:59.805Z,97556.26
2019-03-04T16:22:26.522Z,97541.66
2019-03-04T16:24:53.256Z,97552.98
2019-03-04T16:27:20.005Z,97552.98
2019-03-04T16:29:47.174Z,97545.17
2019-03-04T16:32:14.259Z,97551.05
2019-03-04T16:34:40.966Z,97563.16
2019-03-04T16:37:11.130Z,97559.97
2019-03-04T16:39:38.033Z,97569.94
2019-03-04T16:42:06.587Z,97582.77
2019-03-04T16:44:33.344Z,97585.97
2019-03-04T16:47:00.525Z,97595.97
2019-03-04T16:49:27.747Z,97598.02
2019-03-04T16:51:54.410Z,97599.89
2019-03-04T16:54:21.308Z,97606.38
2019-03-04T16:56:48.036Z,97606.16
2019-03-04T16:59:15.129Z,97618.77
2019-03-04T17:01:41.847Z,97628.49
2019-03-04T17:04:08.681Z,97631.34
2019-03-04T17:06:35.757Z,97626.59
2019-03-04T17:09:06.964Z,97631.89
2019-03-04T17:11:33.680Z,97625.88
2019-03-04T17:14:00.384Z,97630.37
2019-03-04T17:16:27.103Z,97633.25
2019-03-04T17:18:56.891Z,97624.86
2019-03-04T17:21:24.097Z,97630.97
2019-03-04T17:23:50.820Z,97634.38
2019-03-04T17:26:17.924Z,97636.49
2019-03-04T17:28:45.173Z,97644.64
2019-03-04T17:31:11.893Z,97651.44
2019-03-04T17:33:38.633Z,97652.47
2019-03-04T17:36:05.336Z,97652.47
2019-03-04T17:38:34.368Z,97658.79
2019-03-04T17:41:01.192Z,97668.72
2019-03-04T17:43:27.888Z,97665.86
2019-03-04T17:45:54.887Z,97667.14
2019-03-04T17:48:24.289Z,97671.06
2019-03-04T17:50:51.164Z,97676.30
2019-03-04T17:53:18.259Z,97691.83
2019-03-04T17:55:44.973Z,97699.73
2019-03-04T17:58:11.698Z,97702.60
2019-03-04T18:00:40.278Z,97722.55
2019-03-04T18:03:07.010Z,97717.30
2019-03-04T18:05:33.781Z,97707.36
2019-03-04T18:08:00.491Z,97720.47
2019-03-04T18:10:27.936Z,97713.64
2019-03-04T18:12:54.718Z,97729.90
2019-03-04T18:15:21.478Z,97722.83
2019-03-04T18:17:48.554Z,97729.93
2019-03-04T18:20:15.362Z,97728.62
2019-03-04T18:22:42.090Z,97727.55
2019-03-04T18:25:15.253Z,97743.53
2019-03-04T18:27:54.194Z,97743.05
2019-03-04T18:30:29.266Z,97743.05
2019-03-04T18:33:22.455Z,97745.12
2019-03-04T18:36:22.401Z,97752.72
2019-03-04T18:39:41.678Z,97756.65
2019-03-04T18:42:37.431Z,97755.86
2019-03-04T18:45:51.208Z,97766.89
2019-03-04T18:48:52.886Z,97765.31
2019-03-04T18:51:19.936Z,97778.95
2019-03-04T18:53:46.673Z,97773.70
2019-03-04T18:56:21.769Z,97780.52
2019-03-04T18:58:42.706Z,97780.52
2019-03-04T19:01:09.662Z,97789.67
2019-03-04T19:03:36.423Z,97783.37
2019-03-04T19:06:05.415Z,97789.94
2019-03-04T19:08:34.055Z,97797.56
2019-03-04T19:11:03.544Z,97797.56
2019-03-04T19:13:30.273Z,97797.56
2019-03-04T19:15:57.479Z,97799.92
2019-03-04T19:18:24.224Z,97803.86
2019-03-04T19:20:50.964Z,97800.19
2019-03-04T19:23:17.689Z,97802.79
2019-03-04T19:25:44.524Z,97809.62
2019-03-04T19:28:11.366Z,97818.81
2019-03-04T19:30:38.537Z,97824.58
2019-03-04T19:33:05.313Z,97830.09
2019-03-04T19:35:32.164Z,97822.75
2019-03-04T19:38:00.888Z,97818.28
2019-03-04T19:40:27.766Z,97799.41
2019-03-04T19:42:54.613Z,97816.95
2019-03-04T19:45:21.553Z,97819.58
2019-03-04T19:47:48.269Z,97829.52
2019-03-04T19:50:15.326Z,97822.47
2019-03-04T19:52:42.038Z,97823.54
2019-03-04T19:55:08.860Z,97825.61
2019-03-04T19:57:35.951Z,97825.61
2019-03-04T20:00:03.955Z,97829.01
2019-03-04T20:02:30.680Z,97820.89
2019-03-04T20:04:57.440Z,97817.74
2019-03-04T20:07:24.200Z,97829.28
2019-03-04T20:09:51.253Z,97832.95
2019-03-04T20:12:17.991Z,97824.30
2019-03-04T20:14:44.750Z,97828.48
2019-03-04T20:17:11.485Z,97827.14
2019-03-04T20:19:38.200Z,97835.84
2019-03-04T20:22:05.611Z,97843.96
2019-03-04T20:24:32.339Z,97830.89
2019-03-04T20:26:59.092Z,97830.89
2019-03-04T20:29:25.843Z,97842.70
2019-03-04T20:31:52.709Z,97843.98
2019-03-04T20:34:19.833Z,97843.98
2019-03-04T20:36:49.644Z,97846.88
2019-03-04T20:39:16.490Z,97846.88
2019-03-04T20:41:43.223Z,97857.91
2019-03-04T20:44:10.576Z,97863.16
2019-03-04T20:46:37.317Z,97871.30
2019-03-04T20:49:04.058Z,97869.72
2019-03-04T20:51:30.808Z,97865.77
2019-03-04T20:53:57.671Z,97856.84
2019-03-04T20:56:24.635Z,97861.86
2019-03-04T20:58:51.748Z,97860.00
2019-03-04T21:01:18.802Z,97857.90
2019-03-04T21:03:45.637Z,97853.72
2019-03-04T21:06:12.510Z,97871.55
2019-03-04T21:08:39.620Z,97865.78
2019-03-04T21:11:06.464Z,97871.30
2019-03-04T21:13:35.759Z,97879.18
2019-03-04T21:16:01.929Z,97889.66
2019-03-04T21:18:29.019Z,97884.68
2019-03-04T21:20:55.767Z,97895.44
2019-03-04T21:23:22.515Z,97908.55
2019-03-04T21:25:55.545Z,97900.42
2019-03-04T21:28:33.003Z,97910.38
2019-03-04T21:31:40.423Z,97907.48
2019-03-04T21:34:45.315Z,97896.20
2019-03-04T21:37:19.753Z,97894.89
2019-03-04T21:39:48.468Z,97910.39
2019-03-04T21:42:26.650Z,97905.66
2019-03-04T21:45:47.249Z,97905.66
2019-03-04T21:48:24.024Z,97913.27
2019-03-04T21:50:56.021Z,97920.89
2019-03-04T21:53:30.456Z,97928.74
2019-03-04T21:56:17.226Z,97942.94
2019-03-04T21:58:43.939Z,97948.95
2019-03-04T22:01:20.036Z,97954.48
2019-03-04T22:03:46.782Z,97952.61
2019-03-04T22:06:13.476Z,97952.37
2019-03-04T22:08:42.326Z,97952.63
2019-03-04T22:11:09.027Z,97941.86
2019-03-04T22:13:35.755Z,97952.09
2019-03-04T22:16:02.491Z,97952.63
2019-03-04T22:18:29.244Z,97962.88
2019-03-04T22:20:56.273Z,97980.44
2019-03-04T22:23:23.031Z,97983.07
2019-03-04T22:25:49.776Z,97984.91
2019-03-04T22:28:16.477Z,97982.78
2019-03-04T22:30:43.186Z,97986.73
2019-03-04T22:33:13.151Z,97991.72
2019-03-04T22:35:39.901Z,97988.04
2019-03-04T22:38:06.638Z,97990.93
2019-03-04T22:40:33.689Z,97981.48
2019-03-04T22:43:01.619Z,97985.14
2019-03-04T22:45:28.370Z,97979.64
2019-03-04T22:47:57.934Z,97981.50
2019-03-04T22:50:24.747Z,97988.59
2019-03-04T22:52:51.519Z,97988.08
2019-03-04T22:55:24.908Z,97969.97
2019-03-04T22:57:51.672Z,97987.28
2019-03-04T23:01:24.962Z,97993.86
2019-03-04T23:03:53.541Z,97979.14
2019-03-04T23:06:30.834Z,97990.44
2019-03-04T23:09:01.013Z,97994.11
2019-03-04T23:11:28.471Z,97994.62
2019-03-04T23:14:17.243Z,98005.89
2019-03-04T23:16:43.941Z,98005.89
2019-03-04T23:19:10.664Z,97990.14
2019-03-04T23:21:37.401Z,98009.00
2019-03-04T23:24:04.203Z,98009.00
2019-03-04T23:26:31.218Z,98012.42
2019-03-04T23:28:57.964Z,98006.09
2019-03-04T23:31:24.690Z,98006.09
2019-03-04T23:33:51.377Z,98015.84
2019-03-04T23:36:18.121Z,98010.84
2019-03-04T23:38:44.841Z,98017.91
2019-03-04T23:41:14.180Z,98017.91
2019-03-04T23:43:41.173Z,98011.81
2019-03-04T23:46:07.907Z,98011.81
2019-03-04T23:48:34.767Z,98018.09
2019-03-04T23:51:01.533Z,98021.75
2019-03-04T23:53:30.935Z,98021.75
2019-03-04T23:55:56.865Z,98020.98
2019-03-04T23:58:23.872Z,98028.09
